Eleven Point River (Missouri), Ravenden Springs (07072000)

StateMissouriLatestHigh (2410 cfs)
RiverEleven Point RiverRatingObservedEstimated
Updated2021-03-03 13:45 (41 minutes ago)Flood - The river is flooding. Obstacles can be treacherous or deadly. The river should be avoided at this stage for casual trips and definitely for the inexperienced. Trips should be attempted only with protective gear and equipment.Flood(none)3301
Discharge2410 cfs (median: 1170 cfs)High - The river is high and potentially dangerous, especially for the young and / or inexperienced. Normal stream obstacles are sometimes difficult to navigate. Extended distances can be attempted, but canoe travel may not be advisable.High(none)1442
Height5.51 feetGood - Conditions are ideal for a canoe or kayak. Boats typically will drag on fewer than one-quarter of riffles, if at all, and portages are unnecessary or rare. Normal float lengths can be attempted without a problem.Good(none)1037
TrendSteady (falling over 24 hours)Low - River is low but can still be floated. Some riffles are okay but most come with significant dragging and might need a portage. Float lengths should be reduced to accommodate low flow, dragging, and portages.Low(none)785
USGSExternal icon USGS Site (External icon Google Maps)Poor - River is too low to float comfortably. Most or all riffles will drag or must be portaged and some obstacles (such as slick shelf rock) cause undue problems. Avoid the river at this stage for casual paddling trips.Poor(none)418

Trending Data

Plot Image

Trips for Eleven Point River (Missouri), Ravenden Springs (07072000)

DateStartEndDistanceConditionDischargeHeightFishingDetails

A total of 0 rows are displayed.

Condition Descriptions

Fishing Conditions

Fish Species

Notes

Classic Trip List

The classic River Trips application is still available for use. It is updated with the new system using a data retrofit. It is no longer maintained. The original River Trips application is no longer updated (as of 1 Dec 2016) but can be checked for errors or for the condition of the data before it was converted to the new system.

Gauge Data Table

ObservationHeightDischargeMaximum
Discharge
Minimum
Discharge
Mean
Discharge
P05P10P20P25P50
(Median)
P75P80P90P95
2021-03-03 13:45 5.51 2410 7760 (1979) 402 (1981) 1390 462 636 738 805 1170 1680 1760 2010 2480
2021-03-03 12:45 5.51 2410 7760 (1979) 402 (1981) 1390 462 636 738 805 1170 1680 1760 2010 2480
2021-03-03 11:45 5.52 2420 7760 (1979) 402 (1981) 1390 462 636 738 805 1170 1680 1760 2010 2480
2021-03-03 10:45 5.54 2440 7760 (1979) 402 (1981) 1390 462 636 738 805 1170 1680 1760 2010 2480
2021-03-03 09:45 5.54 2440 7760 (1979) 402 (1981) 1390 462 636 738 805 1170 1680 1760 2010 2480
2021-03-03 08:45 5.56 2460 7760 (1979) 402 (1981) 1390 462 636 738 805 1170 1680 1760 2010 2480
2021-03-03 07:15 5.60 2490 7760 (1979) 402 (1981) 1390 462 636 738 805 1170 1680 1760 2010 2480
2021-03-03 06:45 5.60 2490 7760 (1979) 402 (1981) 1390 462 636 738 805 1170 1680 1760 2010 2480
2021-03-03 05:45 5.62 2510 7760 (1979) 402 (1981) 1390 462 636 738 805 1170 1680 1760 2010 2480
2021-03-03 04:45 5.63 2520 7760 (1979) 402 (1981) 1390 462 636 738 805 1170 1680 1760 2010 2480
2021-03-03 03:45 5.64 2520 7760 (1979) 402 (1981) 1390 462 636 738 805 1170 1680 1760 2010 2480
2021-03-03 02:45 5.67 2550 7760 (1979) 402 (1981) 1390 462 636 738 805 1170 1680 1760 2010 2480
2021-03-03 01:45 5.68 2560 7760 (1979) 402 (1981) 1390 462 636 738 805 1170 1680 1760 2010 2480
2021-03-03 00:45 5.70 2580 7760 (1979) 402 (1981) 1390 462 636 738 805 1170 1680 1760 2010 2480
2021-03-02 23:45 5.71 2590 3760 (1945) 404 (1981) 1290 467 565 761 799 1120 1690 1890 2200 2580
2021-03-02 22:45 5.74 2610 3760 (1945) 404 (1981) 1290 467 565 761 799 1120 1690 1890 2200 2580
2021-03-02 21:45 5.77 2640 3760 (1945) 404 (1981) 1290 467 565 761 799 1120 1690 1890 2200 2580
2021-03-02 20:45 5.78 2650 3760 (1945) 404 (1981) 1290 467 565 761 799 1120 1690 1890 2200 2580
2021-03-02 19:45 5.81 2670 3760 (1945) 404 (1981) 1290 467 565 761 799 1120 1690 1890 2200 2580
2021-03-02 18:45 5.83 2690 3760 (1945) 404 (1981) 1290 467 565 761 799 1120 1690 1890 2200 2580
2021-03-02 17:45 5.84 2700 3760 (1945) 404 (1981) 1290 467 565 761 799 1120 1690 1890 2200 2580
2021-03-02 16:45 5.88 2740 3760 (1945) 404 (1981) 1290 467 565 761 799 1120 1690 1890 2200 2580
2021-03-02 15:45 5.90 2750 3760 (1945) 404 (1981) 1290 467 565 761 799 1120 1690 1890 2200 2580
2021-03-02 14:45 5.93 2780 3760 (1945) 404 (1981) 1290 467 565 761 799 1120 1690 1890 2200 2580
2021-03-02 13:45 5.96 2810 3760 (1945) 404 (1981) 1290 467 565 761 799 1120 1690 1890 2200 2580
2021-03-02 12:45 5.97 2820 3760 (1945) 404 (1981) 1290 467 565 761 799 1120 1690 1890 2200 2580
2021-03-02 11:45 6.02 2860 3760 (1945) 404 (1981) 1290 467 565 761 799 1120 1690 1890 2200 2580
2021-03-02 10:45 6.06 2900 3760 (1945) 404 (1981) 1290 467 565 761 799 1120 1690 1890 2200 2580
2021-03-02 09:45 6.09 2920 3760 (1945) 404 (1981) 1290 467 565 761 799 1120 1690 1890 2200 2580
2021-03-02 08:45 6.14 2970 3760 (1945) 404 (1981) 1290 467 565 761 799 1120 1690 1890 2200 2580
2021-03-02 07:45 6.16 2990 3760 (1945) 404 (1981) 1290 467 565 761 799 1120 1690 1890 2200 2580
2021-03-02 06:45 6.22 3040 3760 (1945) 404 (1981) 1290 467 565 761 799 1120 1690 1890 2200 2580
2021-03-02 05:45 6.26 3080 3760 (1945) 404 (1981) 1290 467 565 761 799 1120 1690 1890 2200 2580
2021-03-02 04:45 6.31 3120 3760 (1945) 404 (1981) 1290 467 565 761 799 1120 1690 1890 2200 2580
2021-03-02 03:45 6.36 3170 3760 (1945) 404 (1981) 1290 467 565 761 799 1120 1690 1890 2200 2580
2021-03-02 02:45 6.43 3230 3760 (1945) 404 (1981) 1290 467 565 761 799 1120 1690 1890 2200 2580
2021-03-02 01:45 6.48 3280 3760 (1945) 404 (1981) 1290 467 565 761 799 1120 1690 1890 2200 2580
2021-03-02 00:45 6.53 3330 3760 (1945) 404 (1981) 1290 467 565 761 799 1120 1690 1890 2200 2580
2021-03-01 23:45 6.59 3380 4190 (1945) 413 (1981) 1320 465 562 785 817 1110 1700 2020 2320 2680
2021-03-01 22:45 6.63 3420 4190 (1945) 413 (1981) 1320 465 562 785 817 1110 1700 2020 2320 2680
2021-03-01 21:45 6.66 3450 4190 (1945) 413 (1981) 1320 465 562 785 817 1110 1700 2020 2320 2680
2021-03-01 20:45 6.65 3440 4190 (1945) 413 (1981) 1320 465 562 785 817 1110 1700 2020 2320 2680
2021-03-01 19:45 6.60 3390 4190 (1945) 413 (1981) 1320 465 562 785 817 1110 1700 2020 2320 2680
2021-03-01 18:45 6.52 3320 4190 (1945) 413 (1981) 1320 465 562 785 817 1110 1700 2020 2320 2680
2021-03-01 17:45 6.42 3230 4190 (1945) 413 (1981) 1320 465 562 785 817 1110 1700 2020 2320 2680
2021-03-01 16:45 6.29 3110 4190 (1945) 413 (1981) 1320 465 562 785 817 1110 1700 2020 2320 2680
2021-03-01 15:45 6.16 2990 4190 (1945) 413 (1981) 1320 465 562 785 817 1110 1700 2020 2320 2680
2021-03-01 14:45 6.03 2870 4190 (1945) 413 (1981) 1320 465 562 785 817 1110 1700 2020 2320 2680
2021-03-01 13:45 5.92 2770 4190 (1945) 413 (1981) 1320 465 562 785 817 1110 1700 2020 2320 2680
2021-03-01 12:45 5.84 2700 4190 (1945) 413 (1981) 1320 465 562 785 817 1110 1700 2020 2320 2680
2021-03-01 11:45 5.77 2640 4190 (1945) 413 (1981) 1320 465 562 785 817 1110 1700 2020 2320 2680
2021-03-01 10:45 5.72 2590 4190 (1945) 413 (1981) 1320 465 562 785 817 1110 1700 2020 2320 2680
2021-03-01 09:45 5.70 2580 4190 (1945) 413 (1981) 1320 465 562 785 817 1110 1700 2020 2320 2680
2021-03-01 08:45 5.67 2550 4190 (1945) 413 (1981) 1320 465 562 785 817 1110 1700 2020 2320 2680
2021-03-01 07:45 5.63 2520 4190 (1945) 413 (1981) 1320 465 562 785 817 1110 1700 2020 2320 2680
2021-03-01 06:45 5.58 2470 4190 (1945) 413 (1981) 1320 465 562 785 817 1110 1700 2020 2320 2680
2021-03-01 05:45 5.48 2390 4190 (1945) 413 (1981) 1320 465 562 785 817 1110 1700 2020 2320 2680
2021-03-01 04:45 5.37 2290 4190 (1945) 413 (1981) 1320 465 562 785 817 1110 1700 2020 2320 2680
2021-03-01 03:45 5.25 2190 4190 (1945) 413 (1981) 1320 465 562 785 817 1110 1700 2020 2320 2680
2021-03-01 02:45 5.13 2090 4190 (1945) 413 (1981) 1320 465 562 785 817 1110 1700 2020 2320 2680
2021-03-01 01:45 5.03 2010 4190 (1945) 413 (1981) 1320 465 562 785 817 1110 1700 2020 2320 2680
2021-03-01 00:45 4.93 1930 4190 (1945) 413 (1981) 1320 465 562 785 817 1110 1700 2020 2320 2680
2021-02-28 23:45 4.84 1860 8710 (1945) 348 (1963) 1450 475 554 761 828 1170 1820 2080 2450 3070
2021-02-28 22:45 4.76 1800 8710 (1945) 348 (1963) 1450 475 554 761 828 1170 1820 2080 2450 3070
2021-02-28 21:45 4.69 1740 8710 (1945) 348 (1963) 1450 475 554 761 828 1170 1820 2080 2450 3070
2021-02-28 20:45 4.63 1690 8710 (1945) 348 (1963) 1450 475 554 761 828 1170 1820 2080 2450 3070
2021-02-28 19:45 4.58 1660 8710 (1945) 348 (1963) 1450 475 554 761 828 1170 1820 2080 2450 3070
2021-02-28 18:45 4.55 1630 8710 (1945) 348 (1963) 1450 475 554 761 828 1170 1820 2080 2450 3070
2021-02-28 17:45 4.52 1610 8710 (1945) 348 (1963) 1450 475 554 761 828 1170 1820 2080 2450 3070
2021-02-28 16:45 4.49 1590 8710 (1945) 348 (1963) 1450 475 554 761 828 1170 1820 2080 2450 3070
2021-02-28 15:45 4.46 1560 8710 (1945) 348 (1963) 1450 475 554 761 828 1170 1820 2080 2450 3070
2021-02-28 14:45 4.44 1550 8710 (1945) 348 (1963) 1450 475 554 761 828 1170 1820 2080 2450 3070
2021-02-28 13:45 4.41 1530 8710 (1945) 348 (1963) 1450 475 554 761 828 1170 1820 2080 2450 3070
2021-02-28 12:45 4.38 1500 8710 (1945) 348 (1963) 1450 475 554 761 828 1170 1820 2080 2450 3070
2021-02-28 11:45 4.37 1500 8710 (1945) 348 (1963) 1450 475 554 761 828 1170 1820 2080 2450 3070
2021-02-28 10:45 4.36 1490 8710 (1945) 348 (1963) 1450 475 554 761 828 1170 1820 2080 2450 3070
2021-02-28 09:45 4.34 1470 8710 (1945) 348 (1963) 1450 475 554 761 828 1170 1820 2080 2450 3070
2021-02-28 08:45 4.32 1460 8710 (1945) 348 (1963) 1450 475 554 761 828 1170 1820 2080 2450 3070
2021-02-28 07:45 4.32 1460 8710 (1945) 348 (1963) 1450 475 554 761 828 1170 1820 2080 2450 3070
2021-02-28 06:45 4.30 1440 8710 (1945) 348 (1963) 1450 475 554 761 828 1170 1820 2080 2450 3070
2021-02-28 05:45 4.29 1440 8710 (1945) 348 (1963) 1450 475 554 761 828 1170 1820 2080 2450 3070
2021-02-28 04:45 4.29 1440 8710 (1945) 348 (1963) 1450 475 554 761 828 1170 1820 2080 2450 3070
2021-02-28 03:45 4.28 1430 8710 (1945) 348 (1963) 1450 475 554 761 828 1170 1820 2080 2450 3070
2021-02-28 02:45 4.26 1410 8710 (1945) 348 (1963) 1450 475 554 761 828 1170 1820 2080 2450 3070
2021-02-28 01:45 4.26 1410 8710 (1945) 348 (1963) 1450 475 554 761 828 1170 1820 2080 2450 3070
2021-02-28 00:45 4.26 1410 8710 (1945) 348 (1963) 1450 475 554 761 828 1170 1820 2080 2450 3070

A total of 86 rows are displayed for years 1930 through 2020.